.
WxDataArchive / Data Records for 2014-11-06
2014-11-05 November 2014 2014-11-07

Data Records for Thursday, 06 November 2014

Time	Temp	Chill	HIndex	Humid	Dewpt	 Wind 	HiWind	WindDir	Rain 	Barom
-----	----	-----	------	-----	-----	------	------	-------	-----	-----
00:00	44.6	44.6	44.6	77	37.8	0	0	---	0.00	29.963 
00:05	44.6	44.6	44.6	77	37.8	0	0	---	0.00	29.963 
00:10	44.5	44.5	44.5	78	38.1	0	0	---	0.00	29.963 
00:15	44.5	44.5	44.5	78	38.1	0	0	---	0.00	29.953 
00:20	44.3	44.3	44.3	78	37.9	0	0	---	0.00	29.953 
00:25	44.2	44.2	44.2	79	38.1	0	0	---	0.00	29.953 
00:30	44.1	44.1	44.1	79	38.0	0	0	---	0.00	29.944 
00:35	44.1	44.1	44.1	79	38.0	0	0	---	0.00	29.944 
00:40	43.9	43.9	43.9	80	38.1	0	0	---	0.00	29.944 
00:45	43.9	43.9	43.9	80	38.1	0	0	---	0.00	29.937 
00:50	43.8	43.8	43.8	81	38.4	0	1	248	0.00	29.937 
00:55	43.8	43.8	43.8	81	38.4	0	0	---	0.00	29.937 
01:00	43.8	43.8	43.8	81	38.4	0	0	---	0.00	29.925 
01:05	43.8	43.8	43.8	81	38.4	0	0	---	0.00	29.925 
01:10	43.8	43.8	43.8	81	38.4	0	0	---	0.00	29.925 
01:15	43.8	43.8	43.8	81	38.4	0	0	---	0.00	29.909 
01:20	43.8	43.8	43.8	81	38.4	0	0	---	0.00	29.909 
01:25	43.8	43.8	43.8	81	38.4	0	0	---	0.00	29.909 
01:30	43.9	43.9	43.9	81	38.5	0	1	248	0.00	29.896 
01:35	43.9	43.9	43.9	81	38.5	0	0	---	0.00	29.896 
01:40	44.1	44.1	44.1	81	38.6	0	1	248	0.00	29.896 
01:45	44.1	44.1	44.1	81	38.6	0	1	248	0.00	29.894 
01:50	44.1	44.1	44.1	81	38.6	0	0	---	0.00	29.894 
01:55	44.2	44.2	44.2	81	38.7	0	0	---	0.00	29.894 
02:00	44.2	44.2	44.2	81	38.7	0	0	---	0.00	29.883 
02:05	44.3	44.3	44.3	81	38.8	0	1	248	0.00	29.883 
02:10	44.3	44.3	44.3	81	38.8	0	1	248	0.00	29.883 
02:15	44.5	44.5	44.5	81	39.0	0	1	248	0.00	29.865 
02:20	44.6	44.6	44.6	81	39.1	0	0	---	0.00	29.865 
02:25	44.6	44.6	44.6	81	39.1	0	1	248	0.00	29.865 
02:30	44.6	44.6	44.6	81	39.1	0	1	248	0.00	29.860 
02:35	44.6	44.6	44.6	81	39.1	0	1	248	0.00	29.860 
02:40	44.6	44.6	44.6	82	39.4	0	1	248	0.00	29.860 
02:45	44.8	44.8	44.8	82	39.6	0	1	248	0.00	29.860 
02:50	44.9	44.9	44.9	82	39.7	0	1	248	0.00	29.860 
02:55	44.9	44.9	44.9	82	39.7	0	1	248	0.00	29.860 
03:00	45.1	45.1	45.1	83	40.3	0	1	248	0.00	29.850 
03:05	45.1	45.1	45.1	83	40.3	0	1	248	0.00	29.850 
03:10	45.1	45.1	45.1	83	40.3	0	0	---	0.00	29.850 
03:15	45.1	45.1	45.1	83	40.3	0	0	---	0.00	29.843 
03:20	45.1	45.1	45.1	83	40.3	0	1	248	0.00	29.843 
03:25	45.2	45.2	45.2	84	40.7	0	0	---	0.00	29.843 
03:30	45.2	45.2	45.2	84	40.7	0	1	248	0.00	29.834 
03:35	45.2	45.2	45.2	84	40.7	0	0	---	0.00	29.834 
03:40	45.2	45.2	45.2	84	40.7	0	1	248	0.00	29.834 
03:45	45.4	45.4	45.4	84	40.9	0	0	---	0.00	29.826 
03:50	45.4	45.4	45.4	84	40.9	0	1	248	0.00	29.826 
03:55	45.5	45.5	45.5	85	41.3	0	1	248	0.00	29.826 
04:00	45.5	45.5	45.5	85	41.3	0	1	248	0.00	29.816 
04:05	45.7	45.7	45.7	85	41.5	0	0	---	0.00	29.816 
04:10	45.7	45.7	45.7	85	41.5	0	1	248	0.00	29.816 
04:15	45.8	45.8	45.8	85	41.6	0	1	248	0.00	29.818 
04:20	45.8	45.8	45.8	86	41.9	0	1	248	0.00	29.818 
04:25	46.0	46.0	46.0	86	42.0	0	1	248	0.00	29.818 
04:30	46.0	46.0	46.0	86	42.0	0	1	248	0.00	29.812 
04:35	46.0	46.0	46.0	86	42.0	0	1	248	0.00	29.812 
04:40	46.0	46.0	46.0	86	42.0	0	1	248	0.00	29.812 
04:45	46.0	46.0	46.0	86	42.0	0	1	248	0.00	29.812 
04:50	45.8	45.8	45.8	86	41.9	0	2	248	0.00	29.812 
04:55	45.8	45.8	45.8	86	41.9	0	1	248	0.00	29.812 
05:00	45.8	45.8	45.8	87	42.2	0	1	248	0.00	29.798 
05:05	45.8	45.8	45.8	87	42.2	0	0	---	0.00	29.798 
05:10	45.8	45.8	45.8	87	42.2	0	0	---	0.00	29.798 
05:15	45.8	45.8	45.8	87	42.2	0	0	---	0.00	29.800 
05:20	45.8	45.8	45.8	87	42.2	0	0	---	0.00	29.800 
05:25	45.8	45.8	45.8	87	42.2	0	1	248	0.00	29.800 
05:30	45.8	45.8	45.8	88	42.5	0	0	---	0.00	29.797 
05:35	45.8	45.8	45.8	88	42.5	0	1	248	0.01	29.797 
05:40	45.8	45.8	45.8	88	42.5	0	1	248	0.00	29.797 
05:45	45.7	45.7	45.7	89	42.6	0	1	248	0.00	29.796 
05:50	45.7	45.7	45.7	89	42.6	0	1	248	0.00	29.796 
05:55	45.5	45.5	45.5	89	42.4	0	2	248	0.00	29.796 
06:00	45.5	45.5	45.5	90	42.7	0	1	248	0.00	29.794 
06:05	45.5	45.5	45.5	90	42.7	0	2	248	0.00	29.794 
06:10	45.5	45.5	45.5	90	42.7	0	1	248	0.00	29.794 
06:15	45.5	45.5	45.5	91	43.0	0	1	248	0.00	29.787 
06:20	45.5	45.5	45.5	91	43.0	0	1	248	0.00	29.787 
06:25	45.5	45.5	45.5	91	43.0	0	2	248	0.01	29.787 
06:30	45.5	45.5	45.5	91	43.0	0	1	248	0.00	29.783 
06:35	45.5	45.5	45.5	91	43.0	0	1	248	0.01	29.783 
06:40	45.4	45.4	45.4	92	43.2	0	1	248	0.00	29.783 
06:45	45.4	45.4	45.4	92	43.2	0	1	248	0.01	29.771 
06:50	45.4	45.4	45.4	92	43.2	0	2	248	0.01	29.771 
06:55	45.4	45.4	45.4	92	43.2	0	2	248	0.00	29.771 
07:00	45.4	45.4	45.4	92	43.2	0	1	248	0.01	29.773 
07:05	45.4	45.4	45.4	92	43.2	0	1	248	0.00	29.773 
07:10	45.4	45.4	45.4	92	43.2	0	1	248	0.00	29.773 
07:15	45.4	45.4	45.4	92	43.2	0	1	248	0.00	29.773 
07:20	45.4	45.4	45.4	93	43.5	0	1	248	0.00	29.773 
07:25	45.4	45.4	45.4	93	43.5	0	1	248	0.00	29.773 
07:30	45.4	45.4	45.4	93	43.5	0	1	248	0.00	29.769 
07:35	45.4	45.4	45.4	93	43.5	0	2	248	0.00	29.769 
07:40	45.4	45.4	45.4	93	43.5	0	3	248	0.01	29.769 
07:45	45.4	45.4	45.4	93	43.5	0	2	248	0.00	29.760 
07:50	45.4	45.4	45.4	93	43.5	0	2	248	0.01	29.760 
07:55	45.4	45.4	45.4	93	43.5	0	1	248	0.01	29.760 
08:00	45.2	45.2	45.2	93	43.3	0	2	248	0.01	29.759 
08:05	45.2	45.2	45.2	93	43.3	0	3	248	0.00	29.759 
08:10	45.4	45.4	45.4	93	43.5	0	1	248	0.00	29.759 
08:15	45.4	45.4	45.4	93	43.5	0	1	248	0.01	29.760 
08:20	45.4	45.4	45.4	93	43.5	0	1	248	0.00	29.760 
08:25	45.4	45.4	45.4	94	43.8	0	2	248	0.01	29.760 
08:30	45.4	45.4	45.4	94	43.8	0	2	248	0.01	29.760 
08:35	45.4	45.4	45.4	94	43.8	0	2	248	0.01	29.760 
08:40	45.4	45.4	45.4	94	43.8	0	1	248	0.01	29.760 
08:45	45.4	45.4	45.4	94	43.8	0	1	248	0.01	29.756 
08:50	45.4	45.4	45.4	94	43.8	0	1	248	0.01	29.756 
08:55	45.4	45.4	45.4	94	43.8	0	1	248	0.00	29.756 
09:00	45.4	45.4	45.4	94	43.8	0	1	248	0.01	29.751 
09:05	45.4	45.4	45.4	94	43.8	0	1	248	0.00	29.751 
09:10	45.4	45.4	45.4	94	43.8	0	0	---	0.00	29.751 
09:15	45.4	45.4	45.4	94	43.8	0	1	248	0.01	29.749 
09:20	45.5	45.5	45.5	94	43.9	0	1	248	0.01	29.749 
09:25	45.5	45.5	45.5	94	43.9	0	1	248	0.00	29.749 
09:30	45.5	45.5	45.5	94	43.9	0	1	248	0.00	29.746 
09:35	45.7	45.7	45.7	94	44.1	0	2	248	0.00	29.746 
09:40	45.7	45.7	45.7	94	44.1	0	2	248	0.00	29.746 
09:45	45.7	45.7	45.7	94	44.1	0	4	248	0.00	29.745 
09:50	45.8	45.8	45.8	95	44.4	0	1	248	0.00	29.745 
09:55	45.8	45.8	45.8	95	44.4	1	3	248	0.01	29.745 
10:00	45.8	45.8	45.8	95	44.4	1	3	248	0.00	29.743 
10:05	45.8	45.8	45.8	95	44.4	0	3	248	0.00	29.743 
10:10	46.0	46.0	46.0	95	44.6	0	3	248	0.00	29.743 
10:15	46.0	46.0	46.0	95	44.6	0	3	248	0.00	29.743 
10:20	46.1	46.1	46.1	95	44.7	0	3	248	0.00	29.743 
10:25	46.2	46.2	46.2	95	44.8	1	3	248	0.00	29.743 
10:30	46.2	46.2	46.2	95	44.8	1	3	248	0.00	29.742 
10:35	46.2	46.2	46.2	95	44.8	0	1	248	0.00	29.742 
10:40	46.2	46.2	46.2	95	44.8	0	3	248	0.00	29.742 
10:45	46.2	46.2	46.2	95	44.8	1	3	248	0.00	29.744 
10:50	46.2	46.2	46.2	95	44.8	0	3	248	0.00	29.744 
10:55	46.4	46.4	46.4	95	45.0	1	3	248	0.00	29.744 
11:00	46.4	46.4	46.4	95	45.0	0	4	248	0.00	29.746 
11:05	46.4	46.4	46.4	95	45.0	0	1	248	0.00	29.746 
11:10	46.5	46.5	46.5	95	45.1	1	3	248	0.00	29.746 
11:15	46.5	46.5	46.5	95	45.1	0	3	248	0.00	29.747 
11:20	46.5	46.5	46.5	95	45.1	1	3	248	0.00	29.747 
11:25	46.5	46.5	46.5	95	45.1	0	2	248	0.00	29.747 
11:30	46.5	46.5	46.5	95	45.1	0	1	248	0.00	29.747 
11:35	46.7	46.7	46.7	95	45.3	0	2	248	0.00	29.747 
11:40	46.8	46.8	46.8	95	45.4	0	2	248	0.00	29.747 
11:45	47.0	47.0	47.0	94	45.4	1	3	248	0.00	29.744 
11:50	47.0	47.0	47.0	94	45.4	1	3	248	0.00	29.744 
11:55	47.0	47.0	47.0	94	45.4	1	3	248	0.00	29.744 
12:00	47.0	47.0	47.0	94	45.4	1	4	248	0.00	29.744 
12:05	46.8	46.8	46.8	93	44.9	1	5	248	0.00	29.744 
12:10	46.7	46.7	46.7	92	44.5	2	5	292	0.00	29.744 
12:15	46.5	46.5	46.5	92	44.3	3	7	270	0.00	29.746 
12:20	46.5	46.5	46.5	91	44.0	3	7	270	0.00	29.746 
12:25	46.7	46.7	46.7	89	43.6	2	5	270	0.00	29.746 
12:30	46.8	46.8	46.8	88	43.4	3	5	315	0.00	29.746 
12:35	46.8	46.8	46.8	87	43.1	3	6	292	0.00	29.746 
12:40	46.7	45.1	46.7	86	42.7	4	7	270	0.00	29.746 
12:45	46.7	45.1	46.7	85	42.4	4	7	270	0.00	29.747 
12:50	46.7	46.7	46.7	84	42.1	3	9	270	0.00	29.747 
12:55	46.7	46.7	46.7	84	42.1	3	6	292	0.00	29.747 
13:00	46.7	46.7	46.7	84	42.1	2	6	292	0.00	29.747 
13:05	46.8	46.8	46.8	83	41.9	3	5	292	0.00	29.747 
13:10	46.8	46.8	46.8	83	41.9	3	5	315	0.00	29.747 
13:15	46.7	46.7	46.7	83	41.8	3	7	292	0.00	29.750 
13:20	46.7	46.7	46.7	82	41.5	3	7	292	0.00	29.750 
13:25	46.5	46.5	46.5	83	41.6	3	7	292	0.00	29.750 
13:30	46.4	44.7	46.4	84	41.8	4	7	292	0.00	29.759 
13:35	46.4	46.4	46.4	84	41.8	3	9	292	0.00	29.759 
13:40	46.5	46.5	46.5	83	41.6	3	5	292	0.00	29.759 
13:45	46.5	46.5	46.5	80	40.7	3	6	292	0.00	29.761 
13:50	46.4	44.7	46.4	81	40.9	4	10	292	0.00	29.761 
13:55	46.2	43.8	46.2	81	40.7	5	7	292	0.00	29.761 
14:00	46.2	46.2	46.2	81	40.7	3	6	292	0.00	29.764 
14:05	46.1	44.4	46.1	81	40.6	4	8	292	0.00	29.764 
14:10	45.8	44.0	45.8	82	40.6	4	11	270	0.00	29.764 
14:15	45.8	44.0	45.8	82	40.6	4	7	292	0.00	29.771 
14:20	45.7	43.9	45.7	81	40.2	4	10	270	0.00	29.771 
14:25	45.5	43.7	45.5	82	40.3	4	9	270	0.00	29.771 
14:30	45.5	45.5	45.5	83	40.6	3	6	270	0.00	29.776 
14:35	45.5	45.5	45.5	83	40.6	3	6	292	0.00	29.776 
14:40	45.4	45.4	45.4	84	40.9	3	6	292	0.00	29.776 
14:45	45.1	45.1	45.1	85	40.9	3	7	292	0.00	29.776 
14:50	45.1	45.1	45.1	85	40.9	2	6	248	0.00	29.776 
14:55	44.9	44.9	44.9	86	41.0	3	7	270	0.00	29.776 
15:00	44.8	44.8	44.8	86	40.9	3	6	270	0.00	29.778 
15:05	44.8	44.8	44.8	86	40.9	3	5	270	0.00	29.778 
15:10	44.6	42.6	44.6	86	40.7	4	9	270	0.00	29.778 
15:15	44.6	44.6	44.6	87	41.0	3	6	270	0.00	29.779 
15:20	44.5	44.5	44.5	87	40.9	2	4	292	0.00	29.779 
15:25	44.3	44.3	44.3	88	41.0	2	5	292	0.00	29.779 
15:30	44.3	44.3	44.3	88	41.0	2	5	270	0.00	29.781 
15:35	44.5	44.5	44.5	89	41.5	2	5	248	0.00	29.781 
15:40	44.5	44.5	44.5	89	41.5	3	7	248	0.00	29.781 
15:45	44.5	44.5	44.5	89	41.5	3	6	270	0.00	29.792 
15:50	44.5	42.5	44.5	89	41.5	4	9	292	0.00	29.792 
15:55	44.5	42.5	44.5	89	41.5	4	7	270	0.00	29.792 
16:00	44.5	42.5	44.5	89	41.5	4	9	270	0.00	29.801 
16:05	44.5	42.5	44.5	89	41.5	4	7	315	0.00	29.801 
16:10	44.3	44.3	44.3	89	41.3	3	10	315	0.00	29.801 
16:15	44.3	44.3	44.3	88	41.0	3	7	292	0.00	29.810 
16:20	44.3	44.3	44.3	87	40.7	3	10	292	0.00	29.810 
16:25	44.3	42.3	44.3	87	40.7	4	10	315	0.00	29.810 
16:30	44.3	42.3	44.3	86	40.4	4	7	315	0.00	29.820 
16:35	44.2	42.2	44.2	86	40.3	4	7	292	0.00	29.820 
16:40	44.2	42.2	44.2	86	40.3	4	7	292	0.00	29.820 
16:45	44.1	44.1	44.1	86	40.2	2	7	270	0.00	29.825 
16:50	43.9	41.8	43.9	86	40.0	4	7	292	0.00	29.825 
16:55	43.9	41.8	43.9	86	40.0	4	9	292	0.00	29.825 
17:00	43.8	43.8	43.8	86	39.9	3	6	292	0.00	29.831 
17:05	43.8	41.7	43.8	87	40.2	4	10	292	0.00	29.831 
17:10	43.6	43.6	43.6	87	40.0	3	6	270	0.00	29.831 
17:15	43.5	43.5	43.5	87	39.9	3	6	292	0.00	29.841 
17:20	43.5	43.5	43.5	88	40.2	3	7	270	0.00	29.841 
17:25	43.5	43.5	43.5	88	40.2	3	7	270	0.00	29.841 
17:30	43.3	43.3	43.3	88	40.0	3	6	270	0.00	29.855 
17:35	43.2	43.2	43.2	88	39.9	3	10	338	0.00	29.855 
17:40	43.2	43.2	43.2	89	40.2	2	7	315	0.00	29.855 
17:45	43.1	40.9	43.1	89	40.1	4	12	292	0.00	29.860 
17:50	43.1	43.1	43.1	88	39.8	3	7	292	0.00	29.860 
17:55	42.9	42.9	42.9	88	39.6	3	10	338	0.00	29.860 
18:00	42.9	40.7	42.9	88	39.6	4	9	315	0.00	29.874 
18:05	42.8	40.6	42.8	87	39.2	4	10	315	0.00	29.874 
18:10	42.6	40.3	42.6	86	38.7	4	10	292	0.00	29.874 
18:15	42.3	42.3	42.3	86	38.4	3	10	292	0.00	29.887 
18:20	42.2	42.2	42.2	86	38.3	3	9	315	0.00	29.887 
18:25	42.1	42.1	42.1	86	38.2	3	6	270	0.00	29.887 
18:30	41.9	41.9	41.9	87	38.3	3	7	338	0.00	29.895 
18:35	41.6	41.6	41.6	87	38.0	3	7	292	0.00	29.895 
18:40	41.3	38.8	41.3	88	38.0	4	11	292	0.01	29.895 
18:45	41.1	38.6	41.1	88	37.8	4	10	315	0.00	29.910 
18:50	40.9	38.4	40.9	88	37.6	4	11	315	0.00	29.910 
18:55	40.8	40.8	40.8	88	37.5	3	7	315	0.00	29.910 
19:00	40.8	40.8	40.8	89	37.8	3	8	315	0.01	29.924 
19:05	40.6	40.6	40.6	89	37.6	3	7	315	0.00	29.924 
19:10	40.6	38.0	40.6	89	37.6	4	9	315	0.00	29.924 
19:15	40.5	37.1	40.5	89	37.5	5	10	338	0.00	29.936 
19:20	40.3	37.7	40.3	89	37.3	4	10	315	0.00	29.936 
19:25	40.3	40.3	40.3	89	37.3	3	7	315	0.00	29.936 
19:30	40.2	40.2	40.2	89	37.2	3	6	315	0.00	29.947 
19:35	40.1	40.1	40.1	89	37.1	3	8	315	0.00	29.947 
19:40	39.9	39.9	39.9	89	36.9	3	7	315	0.00	29.947 
19:45	39.9	39.9	39.9	89	36.9	3	7	292	0.00	29.959 
19:50	39.9	37.2	39.9	89	36.9	4	7	338	0.00	29.959 
19:55	39.9	37.2	39.9	89	36.9	4	10	292	0.00	29.959 
20:00	39.9	37.2	39.9	89	36.9	4	9	292	0.00	29.973 
20:05	39.9	37.2	39.9	90	37.2	4	10	292	0.00	29.973 
20:10	39.9	39.9	39.9	88	36.6	3	7	292	0.00	29.973 
20:15	39.9	39.9	39.9	88	36.6	3	10	315	0.00	29.985 
20:20	39.9	37.2	39.9	88	36.6	4	10	315	0.00	29.985 
20:25	40.1	37.4	40.1	87	36.5	4	9	315	0.00	29.985 
20:30	40.1	36.6	40.1	86	36.3	5	13	292	0.00	29.987 
20:35	40.2	37.5	40.2	86	36.4	4	11	315	0.00	29.987 
20:40	40.2	40.2	40.2	86	36.4	3	7	338	0.00	29.987 
20:45	40.2	37.5	40.2	85	36.1	4	11	315	0.00	29.992 
20:50	40.3	40.3	40.3	85	36.2	3	7	338	0.00	29.992 
20:55	40.3	40.3	40.3	85	36.2	3	10	338	0.00	29.992 
21:00	40.3	37.7	40.3	85	36.2	4	8	338	0.00	30.003 
21:05	40.3	37.7	40.3	84	35.9	4	10	292	0.00	30.003 
21:10	40.3	40.3	40.3	84	35.9	3	7	338	0.00	30.003 
21:15	40.3	40.3	40.3	84	35.9	3	6	315	0.00	30.013 
21:20	40.3	40.3	40.3	84	35.9	3	10	338	0.00	30.013 
21:25	40.3	37.7	40.3	84	35.9	4	10	315	0.00	30.013 
21:30	40.2	37.5	40.2	84	35.8	4	7	338	0.00	30.022 
21:35	40.2	40.2	40.2	83	35.5	3	7	338	0.00	30.022 
21:40	40.2	37.5	40.2	83	35.5	4	10	0	0.00	30.022 
21:45	40.2	37.5	40.2	82	35.2	4	11	292	0.00	30.034 
21:50	40.2	40.2	40.2	81	34.8	3	10	338	0.00	30.034 
21:55	40.2	40.2	40.2	81	34.8	3	9	315	0.00	30.034 
22:00	40.2	40.2	40.2	81	34.8	2	7	338	0.00	30.038 
22:05	40.2	37.5	40.2	80	34.5	4	7	315	0.00	30.038 
22:10	40.3	40.3	40.3	80	34.6	3	11	315	0.00	30.038 
22:15	40.3	40.3	40.3	80	34.6	2	9	338	0.00	30.039 
22:20	40.3	37.7	40.3	80	34.6	4	10	315	0.00	30.039 
22:25	40.3	40.3	40.3	79	34.3	3	6	338	0.00	30.039 
22:30	40.3	40.3	40.3	80	34.6	2	7	338	0.00	30.044 
22:35	40.3	40.3	40.3	79	34.3	2	5	315	0.00	30.044 
22:40	40.3	40.3	40.3	79	34.3	3	7	338	0.00	30.044 
22:45	40.3	37.7	40.3	79	34.3	4	7	338	0.00	30.048 
22:50	40.2	40.2	40.2	79	34.2	2	6	292	0.00	30.048 
22:55	40.2	40.2	40.2	79	34.2	2	7	315	0.00	30.048 
23:00	40.1	40.1	40.1	80	34.4	2	5	292	0.00	30.050 
23:05	40.1	40.1	40.1	80	34.4	3	5	315	0.00	30.050 
23:10	39.9	39.9	39.9	80	34.2	2	5	292	0.00	30.050 
23:15	39.9	39.9	39.9	80	34.2	3	7	292	0.00	30.053 
23:20	39.8	39.8	39.8	80	34.1	2	6	338	0.00	30.053 
23:25	39.8	39.8	39.8	80	34.1	2	6	315	0.00	30.053 
23:30	39.6	39.6	39.6	80	33.9	2	7	315	0.00	30.059 
23:35	39.5	39.5	39.5	80	33.9	2	5	315	0.00	30.059 
23:40	39.5	39.5	39.5	80	33.9	2	5	315	0.00	30.059 
23:45	39.5	39.5	39.5	79	33.5	2	5	315	0.00	30.054 
23:50	39.5	39.5	39.5	79	33.5	2	5	315	0.00	30.054 
23:55	39.5	39.5	39.5	78	33.2	2	6	315	0.00	30.054 

CoCoRaHS
IN-AL-39
A2 Web Hosting
Creative Commons License
GoDaddy
search engine by freefind advanced

loaded 2018-11-15 16:29:46 • last modified 2010-11-18 10:43:29
Privacy PolicyDisclaimer
• wx.awcolley.com is powered by PmWiki v.2002016 •
• all content (unless otherwise noted) © 2018 A W Colley